Saturday, December 15, 2018, 2:14 PM EST
Back to Local

KPYM, Plymouth Municipal Airport

Location: Carver, MA, United States Lat: 41.9
Local Time: 2:14 PM EST (19:14 GMT) Lon: -70.733
Time Zone: US/Eastern Elev: 147 ft

Show me the last for .
Show Decoded

2018-12-15 13:52 METAR KPYM 151852Z AUTO 35003KT 10SM FEW006 11/09 A3013 RMK AO2 SLP203 T01060089
                 =
2018-12-15 13:29 METAR KPYM 151829Z AUTO 36003KT 10SM FEW005 11/09 A3013 RMK AO2 T01110089 =
2018-12-15 12:52 METAR KPYM 151752Z AUTO 28003KT 10SM OVC060 11/09 A3013 RMK AO2 RAB05E14 SLP202
                 P0000 60008 T01060089 10106 20083 56029 =
2018-12-15 12:35 METAR KPYM 151735Z AUTO 30003KT 10SM SCT004 OVC055 11/09 A3013 RMK AO2 RAB05E14
                 P0000 T01060094 =
2018-12-15 11:52 METAR KPYM 151652Z AUTO 00000KT 10SM OVC003 10/09 A3015 RMK AO2 SLP210 T01000089
                 =
2018-12-15 11:26 METAR KPYM 151626Z AUTO 22004KT 10SM BKN003 OVC055 10/09 A3015 RMK AO2 T01000089
                 =
2018-12-15 11:03 METAR KPYM 151603Z AUTO 21004KT 10SM FEW002 BKN060 OVC080 10/09 A3017 RMK AO2
                 T01000089 =
2018-12-15 10:52 METAR KPYM 151552Z AUTO 21003KT 10SM BKN060 OVC075 09/08 A3017 RMK AO2 RAE00
                 SLP219 P0000 T00940083 =
2018-12-15 10:04 METAR KPYM 151504Z AUTO 24003KT 7SM FEW019 BKN038 OVC055 09/08 A3021 RMK AO2
                 RAE00 P0000 T00940083 =
2018-12-15 09:52 METAR KPYM 151452Z AUTO 23003KT 4SM -RA BR FEW016 BKN022 OVC048 09/08 A3021 RMK
                 AO2 SLP232 P0005 60008 T00940083 51006 =
2018-12-15 09:46 METAR KPYM 151446Z AUTO 22004KT 2SM -RA BR FEW004 BKN015 OVC028 09/08 A3021 RMK
                 AO2 P0005 =
2018-12-15 09:42 METAR KPYM 151442Z AUTO 00000KT 1 1/2SM -RA BR FEW004 BKN010 OVC023 09/08 A3022
                 RMK AO2 P0005 T00940078 =
2018-12-15 09:32 METAR KPYM 151432Z AUTO 00000KT 1 1/4SM -RA BR FEW004 OVC008 09/08 A3022 RMK AO2
                 P0004 T00890078 =
2018-12-15 09:13 METAR KPYM 151413Z AUTO 23003KT 1 1/4SM -RA BR BKN004 BKN008 OVC022 09/08 A3022
                 RMK AO2 P0002 T00890078 =
2018-12-15 09:06 METAR KPYM 151406Z AUTO 26003KT 1 1/2SM -RA BR BKN005 BKN010 OVC019 09/08 A3022
                 RMK AO2 P0001 T00890078 =
2018-12-15 08:52 METAR KPYM 151352Z AUTO 22004KT 1 1/4SM -RA BR FEW006 BKN016 OVC023 09/08 A3021
                 RMK AO2 SLP231 P0002 T00890078 =
2018-12-15 08:49 METAR KPYM 151349Z AUTO 20004KT 1 1/4SM -RA BR FEW006 BKN016 OVC021 09/08 A3021
                 RMK AO2 P0002 =
2018-12-15 08:37 METAR KPYM 151337Z AUTO 25004KT 2 1/2SM -RA BR SCT006 OVC018 08/07 A3021 RMK AO2
                 P0000 T00830072 =
2018-12-15 07:52 METAR KPYM 151252Z AUTO 24004KT 3SM -RA BR OVC008 09/07 A3020 RMK AO2 RAB15 CIG
                 005V010 SLP226 P0001 T00890072 =
2018-12-15 06:52 METAR KPYM 151152Z AUTO 24006KT 10SM BKN008 OVC019 09/07 A3019 RMK AO2 SLP225
                 60000 T00890072 10089 20072 53004 =
2018-12-15 06:45 METAR KPYM 151145Z AUTO 24007KT 10SM SCT008 BKN019 OVC026 08/07 A3019 RMK AO2
                 T00830072 =
2018-12-15 06:05 METAR KPYM 151105Z AUTO 23005KT 10SM BKN016 OVC025 09/07 A3017 RMK AO2 T00890072
                 =
2018-12-15 05:52 METAR KPYM 151052Z AUTO 22006KT 10SM BKN014 OVC019 09/07 A3017 RMK AO2 RAE0958
                 SLP217 P0000 T00890072 =
2018-12-15 05:21 METAR KPYM 151021Z AUTO 22007KT 10SM OVC014 09/07 A3018 RMK AO2 RAE0958 P0000
                 T00890072 =
2018-12-15 04:52 METAR KPYM 150952Z AUTO 23005KT 10SM -RA BKN015 BKN020 OVC034 08/07 A3018 RMK
                 AO2 RAB36 SLP221 P0000 T00830072 =
2018-12-15 04:22 METAR KPYM 150922Z AUTO 23007KT 10SM SCT005 OVC047 08/07 A3018 RMK AO2 T00830072
                 =
2018-12-15 04:02 METAR KPYM 150902Z AUTO 22008KT 10SM BKN005 OVC048 08/07 A3018 RMK AO2 T00830072
                 =
2018-12-15 03:52 METAR KPYM 150852Z AUTO 23006KT 10SM SCT005 OVC048 08/07 A3018 RMK AO2 SLP221
                 60000 T00830072 58009 =
2018-12-15 03:02 METAR KPYM 150802Z AUTO 22007KT 10SM FEW006 BKN046 OVC055 08/07 A3020 RMK AO2
                 T00830072 =
2018-12-15 02:52 METAR KPYM 150752Z AUTO 21007KT 10SM BKN006 OVC047 08/07 A3020 RMK AO2 RAE01
                 SLP227 P0000 T00830072 =
2018-12-15 02:18 METAR KPYM 150718Z AUTO 22007KT 10SM BKN006 BKN048 OVC065 08/07 A3021 RMK AO2
                 RAE01 P0000 T00830067 =
2018-12-15 01:52 METAR KPYM 150652Z AUTO 22007KT 10SM -RA SCT004 BKN075 OVC100 08/07 A3021 RMK
                 AO2 RAB29 SLP230 P0000 T00780067 =
2018-12-15 01:47 METAR KPYM 150647Z AUTO 22007KT 10SM -RA SCT004 BKN075 OVC100 08/07 A3021 RMK
                 AO2 RAB29 P0000 =
2018-12-15 01:04 METAR KPYM 150604Z AUTO 21008KT 3SM BR OVC002 08/06 A3022 RMK AO2 T00780061 =
2018-12-15 00:52 METAR KPYM 150552Z AUTO 22008KT 2 1/2SM BR OVC002 07/06 A3023 RMK AO2 RAB41E51
                 SLP236 P0000 60000 T00720061 10072 20050 58018 =
2018-12-15 00:12 METAR KPYM 150512Z AUTO 22006KT 1 3/4SM BR OVC002 07/06 A3023 RMK AO2 T00670056
                 =
2018-12-14 23:52 METAR KPYM 150452Z AUTO 21006KT 2 1/2SM BR OVC002 07/05 A3024 RMK AO2 SLP240
                 T00670050 400781072 =
2018-12-14 22:52 METAR KPYM 150352Z AUTO 21004KT 7SM OVC003 06/04 A3027 RMK AO2 SLP250 T00610044
                 =
2018-12-14 21:52 METAR KPYM 150252Z AUTO 20004KT 9SM OVC004 06/04 A3028 RMK AO2 SLP254 T00610044
                 56027 =
2018-12-14 20:59 METAR KPYM 150159Z AUTO 00000KT 7SM OVC002 06/04 A3029 RMK AO2 T00560044 =
2018-12-14 20:52 METAR KPYM 150152Z AUTO 18005KT 2 1/2SM BR OVC002 06/04 A3030 RMK AO2 SLP261
                 T00560039 =
2018-12-14 20:42 METAR KPYM 150142Z AUTO 18004KT 1 3/4SM BR OVC002 05/04 A3030 RMK AO2 T00500039
                 =
2018-12-14 20:30 METAR KPYM 150130Z AUTO 17004KT 2SM BR OVC003 05/04 A3031 RMK AO2 T00500039 =
2018-12-14 20:07 METAR KPYM 150107Z AUTO 18004KT 5SM BR OVC003 05/04 A3033 RMK AO2 T00500039 =
2018-12-14 19:52 METAR KPYM 150052Z AUTO 15004KT 10SM OVC006 06/03 A3033 RMK AO2 CIG 004V007
                 SLP274 T00560033 =
2018-12-14 19:17 METAR KPYM 150017Z AUTO 17004KT 10SM OVC009 05/03 A3035 RMK AO2 T00500033 =
2018-12-14 18:52 METAR KPYM 142352Z AUTO 18003KT 10SM OVC010 05/03 A3036 RMK AO2 SLP281 T00500028
                 10078 20044 58015 =
2018-12-14 17:52 METAR KPYM 142252Z AUTO 21003KT 10SM OVC013 05/02 A3039 RMK AO2 SLP294 T00500022
                 =
2018-12-14 17:27 METAR KPYM 142227Z AUTO 21003KT 10SM OVC014 05/02 A3040 RMK AO2 T00500022 =
2018-12-14 16:52 METAR KPYM 142152Z AUTO 15003KT 10SM OVC016 06/02 A3040 RMK AO2 SLP296 T00560022
                 =
2018-12-14 15:52 METAR KPYM 142052Z AUTO 00000KT 10SM BKN017 06/02 A3040 RMK AO2 SLP297 T00560017
                 56013 =
2018-12-14 15:29 METAR KPYM 142029Z AUTO 18004KT 10SM BKN019 BKN060 06/02 A3041 RMK AO2 T00610017
                 =
2018-12-14 14:52 METAR KPYM 141952Z AUTO 18003KT 10SM CLR 07/02 A3040 RMK AO2 SLP297 T00670017 =

Support USWX by starting your Amazon purchase here.